createdAt,value
2022-08-19T00:01:53.346Z,100524.25
2022-08-19T00:04:25.425Z,100531.63
2022-08-19T00:06:53.907Z,100527.56
2022-08-19T00:09:23.794Z,100524.19
2022-08-19T00:11:54.488Z,100516.28
2022-08-19T00:14:23.289Z,100508.41
2022-08-19T00:16:52.576Z,100516.47
2022-08-19T00:19:20.182Z,100511.94
2022-08-19T00:21:48.160Z,100514.63
2022-08-19T00:24:16.573Z,100514.44
2022-08-19T00:26:46.591Z,100519.16
2022-08-19T00:29:17.166Z,100524.50
2022-08-19T00:31:45.349Z,100531.72
2022-08-19T00:34:14.695Z,100531.72
2022-08-19T00:36:43.333Z,100544.44
2022-08-19T00:39:11.697Z,100539.22
2022-08-19T00:41:39.694Z,100540.22
2022-08-19T00:44:14.488Z,100536.00
2022-08-19T00:46:51.611Z,100537.00
2022-08-19T00:49:54.861Z,100537.16
2022-08-19T00:52:29.931Z,100540.81
2022-08-19T00:54:58.884Z,100540.81
2022-08-19T00:57:36.146Z,100539.97
2022-08-19T01:00:07.602Z,100539.13
2022-08-19T01:02:35.256Z,100542.84
2022-08-19T01:05:07.502Z,100542.00
2022-08-19T01:07:38.202Z,100542.00
2022-08-19T01:10:14.012Z,100538.59
2022-08-19T01:12:41.779Z,100542.28
2022-08-19T01:15:12.269Z,100546.25
2022-08-19T01:17:41.959Z,100538.22
2022-08-19T01:20:16.064Z,100545.28
2022-08-19T01:22:56.351Z,100545.94
2022-08-19T01:25:34.089Z,100549.47
2022-08-19T01:28:09.960Z,100548.50
2022-08-19T01:30:38.836Z,100550.34
2022-08-19T01:33:07.039Z,100550.34
2022-08-19T01:35:36.957Z,100544.28
2022-08-19T01:38:09.332Z,100550.78
2022-08-19T01:40:40.445Z,100563.50
2022-08-19T01:43:08.971Z,100558.81
2022-08-19T01:45:37.019Z,100560.66
2022-08-19T01:48:04.872Z,100562.34
2022-08-19T01:50:34.329Z,100562.22
2022-08-19T01:53:07.612Z,100559.34
2022-08-19T01:55:41.549Z,100557.53
2022-08-19T01:58:15.745Z,100553.69
2022-08-19T02:00:44.382Z,100557.06
2022-08-19T02:03:12.466Z,100550.28
2022-08-19T02:05:41.776Z,100556.69
2022-08-19T02:08:10.406Z,100552.22
2022-08-19T02:10:43.697Z,100551.78
2022-08-19T02:13:13.183Z,100555.69
2022-08-19T02:15:41.386Z,100551.00
2022-08-19T02:18:09.444Z,100559.22
2022-08-19T02:20:38.865Z,100556.66
2022-08-19T02:23:13.514Z,100565.19
2022-08-19T02:25:42.673Z,100563.81
2022-08-19T02:28:10.263Z,100560.75
2022-08-19T02:30:39.243Z,100569.28
2022-08-19T02:33:06.857Z,100565.03
2022-08-19T02:35:34.422Z,100563.69
2022-08-19T02:38:20.490Z,100557.91
2022-08-19T02:40:53.894Z,100565.97
2022-08-19T02:43:22.673Z,100564.28
2022-08-19T02:45:50.788Z,100561.75
2022-08-19T02:48:23.901Z,100560.75
2022-08-19T02:50:56.300Z,100560.91
2022-08-19T02:53:28.056Z,100564.13
2022-08-19T02:55:55.632Z,100562.97
2022-08-19T02:58:25.030Z,100561.00
2022-08-19T03:00:56.308Z,100558.16
2022-08-19T03:03:24.542Z,100569.56
2022-08-19T03:05:57.009Z,100568.88
2022-08-19T03:08:26.631Z,100561.97
2022-08-19T03:10:55.030Z,100563.69
2022-08-19T03:13:23.647Z,100569.88
2022-08-19T03:15:51.298Z,100571.72
2022-08-19T03:18:18.934Z,100576.22
2022-08-19T03:20:53.943Z,100570.31
2022-08-19T03:23:22.378Z,100569.66
2022-08-19T03:26:02.834Z,100564.06
2022-08-19T03:28:39.832Z,100573.53
2022-08-19T03:31:41.442Z,100573.13
2022-08-19T03:33:59.897Z,100577.41
2022-08-19T03:36:28.651Z,100577.84
2022-08-19T03:39:00.587Z,100584.66
2022-08-19T03:41:34.332Z,100581.44
2022-08-19T03:44:16.913Z,100571.13
2022-08-19T03:46:49.132Z,100576.97
2022-08-19T03:49:18.274Z,100574.44
2022-08-19T03:51:48.754Z,100575.59
2022-08-19T03:54:20.741Z,100577.56
2022-08-19T03:56:49.861Z,100591.13
2022-08-19T03:59:21.041Z,100586.88
2022-08-19T04:01:48.789Z,100586.19
2022-08-19T04:04:16.421Z,100582.66
2022-08-19T04:06:45.479Z,100587.31
2022-08-19T04:09:13.029Z,100586.63
2022-08-19T04:11:51.129Z,100597.50
2022-08-19T04:14:22.257Z,100593.13
2022-08-19T04:16:50.218Z,100592.13
2022-08-19T04:19:19.902Z,100593.53
2022-08-19T04:21:50.116Z,100596.59
2022-08-19T04:24:18.523Z,100585.16
2022-08-19T04:26:48.121Z,100582.72
2022-08-19T04:29:22.968Z,100586.31
2022-08-19T04:31:51.017Z,100579.56
2022-08-19T04:34:23.341Z,100582.94
2022-08-19T04:36:52.515Z,100579.56
2022-08-19T04:39:46.300Z,100588.72
2022-08-19T04:42:33.006Z,100590.72
2022-08-19T04:45:00.949Z,100600.56
2022-08-19T04:47:47.675Z,100596.50
2022-08-19T04:50:16.605Z,100600.91
2022-08-19T04:52:46.655Z,100603.72
2022-08-19T04:55:14.713Z,100599.06
2022-08-19T04:57:42.751Z,100602.28
2022-08-19T05:00:11.288Z,100601.72
2022-08-19T05:02:39.683Z,100600.09
2022-08-19T05:05:07.957Z,100599.50
2022-08-19T05:07:36.740Z,100601.59
2022-08-19T05:10:06.301Z,100606.50
2022-08-19T05:12:34.486Z,100610.84
2022-08-19T05:15:04.935Z,100607.88
2022-08-19T05:17:38.110Z,100612.09
2022-08-19T05:20:26.651Z,100609.63
2022-08-19T05:22:54.686Z,100609.19
2022-08-19T05:25:23.374Z,100608.56
2022-08-19T05:27:51.031Z,100616.00
2022-08-19T05:30:18.644Z,100615.69
2022-08-19T05:32:52.161Z,100618.91
2022-08-19T05:35:24.813Z,100627.50
2022-08-19T05:37:59.035Z,100618.16
2022-08-19T05:40:26.898Z,100622.91
2022-08-19T05:42:57.024Z,100627.09
2022-08-19T05:45:25.699Z,100629.34
2022-08-19T05:47:53.219Z,100635.25
2022-08-19T05:50:21.635Z,100635.78
2022-08-19T05:52:50.729Z,100640.97
2022-08-19T05:55:21.302Z,100637.97
2022-08-19T05:57:49.404Z,100643.22
2022-08-19T06:00:21.408Z,100633.16
2022-08-19T06:02:52.889Z,100637.38
2022-08-19T06:05:21.138Z,100631.84
2022-08-19T06:07:48.740Z,100636.91
2022-08-19T06:10:16.419Z,100656.06
2022-08-19T06:12:43.992Z,100654.09
2022-08-19T06:15:20.975Z,100654.59
2022-08-19T06:17:49.051Z,100652.75
2022-08-19T06:20:29.659Z,100657.16
2022-08-19T06:23:06.488Z,100658.66
2022-08-19T06:25:34.024Z,100650.84
2022-08-19T06:28:17.475Z,100655.59
2022-08-19T06:30:45.683Z,100666.94
2022-08-19T06:33:13.339Z,100672.34
2022-08-19T06:35:42.166Z,100669.69
2022-08-19T06:38:10.558Z,100664.63
2022-08-19T06:40:39.343Z,100674.38
2022-08-19T06:43:08.589Z,100670.03
2022-08-19T06:45:39.764Z,100672.38
2022-08-19T06:48:08.438Z,100676.91
2022-08-19T06:50:36.719Z,100674.53
2022-08-19T06:53:08.319Z,100673.03
2022-08-19T06:55:35.890Z,100678.28
2022-08-19T06:58:05.340Z,100682.28
2022-08-19T07:00:33.679Z,100684.66
2022-08-19T07:03:04.592Z,100681.78
2022-08-19T07:05:45.994Z,100683.41
2022-08-19T07:08:14.967Z,100675.47
2022-08-19T07:10:46.732Z,100691.91
2022-08-19T07:13:14.786Z,100691.50
2022-08-19T07:15:42.962Z,100695.34
2022-08-19T07:18:11.654Z,100704.88
2022-08-19T07:20:42.060Z,100702.75
2022-08-19T07:23:16.063Z,100705.06
2022-08-19T07:25:45.281Z,100711.03
2022-08-19T07:28:24.024Z,100709.09
2022-08-19T07:30:53.328Z,100716.22
2022-08-19T07:33:21.353Z,100727.63
2022-08-19T07:35:49.937Z,100721.09
2022-08-19T07:38:18.320Z,100718.59
2022-08-19T07:40:46.992Z,100721.66
2022-08-19T07:43:17.950Z,100712.75
2022-08-19T07:45:46.529Z,100709.75
2022-08-19T07:48:15.448Z,100724.56
2022-08-19T07:50:43.422Z,100716.97
2022-08-19T07:53:11.129Z,100724.13
2022-08-19T07:55:41.390Z,100734.72
2022-08-19T07:58:14.564Z,100749.56
2022-08-19T08:00:44.043Z,100743.13
2022-08-19T08:03:12.753Z,100747.69
2022-08-19T08:05:58.982Z,100748.78
2022-08-19T08:08:47.931Z,100754.78
2022-08-19T08:11:19.170Z,100757.75
2022-08-19T08:14:01.209Z,100757.97
2022-08-19T08:16:39.582Z,100754.50
2022-08-19T08:19:22.961Z,100751.03
2022-08-19T08:21:55.618Z,100761.41
2022-08-19T08:24:23.735Z,100768.50
2022-08-19T08:26:57.913Z,100762.28
2022-08-19T08:29:35.125Z,100757.94
2022-08-19T08:32:03.492Z,100759.63
2022-08-19T08:34:31.024Z,100754.75
2022-08-19T08:36:58.587Z,100759.66
2022-08-19T08:39:26.282Z,100759.63
2022-08-19T08:42:10.309Z,100748.16
2022-08-19T08:45:06.051Z,100757.56
2022-08-19T08:47:42.105Z,100754.19
2022-08-19T08:50:23.898Z,100762.66
2022-08-19T08:52:58.164Z,100768.41
2022-08-19T08:55:37.116Z,100776.63
2022-08-19T08:58:15.093Z,100765.41
2022-08-19T09:00:47.845Z,100770.41
2022-08-19T09:03:23.879Z,100771.41
2022-08-19T09:05:57.422Z,100767.81
2022-08-19T09:08:44.336Z,100778.19
2022-08-19T09:11:42.180Z,100775.25
2022-08-19T09:14:49.296Z,100780.16
2022-08-19T09:17:13.636Z,100780.19
2022-08-19T09:20:05.973Z,100771.56
2022-08-19T09:22:41.211Z,100780.38
2022-08-19T09:25:10.760Z,100774.66
2022-08-19T09:27:43.027Z,100767.13
2022-08-19T09:30:20.536Z,100764.75
2022-08-19T09:32:52.870Z,100767.03
2022-08-19T09:35:28.445Z,100762.72
2022-08-19T09:37:59.564Z,100771.19
2022-08-19T09:40:30.120Z,100776.00
2022-08-19T09:43:11.479Z,100771.00
2022-08-19T09:45:41.143Z,100774.84
2022-08-19T09:48:09.604Z,100775.22
2022-08-19T09:50:51.473Z,100767.84
2022-08-19T09:53:25.181Z,100781.97
2022-08-19T09:55:55.941Z,100774.56
2022-08-19T09:58:28.622Z,100777.34
2022-08-19T10:00:57.534Z,100769.38
2022-08-19T10:03:29.895Z,100765.19
2022-08-19T10:06:00.083Z,100760.88
2022-08-19T10:08:31.645Z,100762.75
2022-08-19T10:10:59.916Z,100759.50
2022-08-19T10:13:48.525Z,100763.56
2022-08-19T10:16:21.205Z,100762.56
2022-08-19T10:18:49.890Z,100765.53
2022-08-19T10:21:25.608Z,100766.78
2022-08-19T10:23:55.763Z,100761.19
2022-08-19T10:26:26.736Z,100754.31
2022-08-19T10:28:55.252Z,100756.72
2022-08-19T10:32:00.358Z,100765.19
2022-08-19T10:34:27.394Z,100760.63
2022-08-19T10:37:01.183Z,100770.34
2022-08-19T10:39:42.365Z,100760.19
2022-08-19T10:42:14.762Z,100760.66
2022-08-19T10:44:42.880Z,100764.88
2022-08-19T10:47:24.489Z,100770.06
2022-08-19T10:50:13.792Z,100763.25
2022-08-19T10:52:48.903Z,100768.94
2022-08-19T10:55:39.382Z,100768.69
2022-08-19T10:58:22.327Z,100767.03
2022-08-19T11:00:55.329Z,100770.72
2022-08-19T11:03:24.086Z,100770.25
2022-08-19T11:06:02.768Z,100766.22
2022-08-19T11:08:31.758Z,100758.91
2022-08-19T11:11:02.173Z,100767.00
2022-08-19T11:13:37.070Z,100764.13
2022-08-19T11:16:07.931Z,100758.19
2022-08-19T11:18:38.289Z,100760.91
2022-08-19T11:21:12.065Z,100751.97
2022-08-19T11:23:40.798Z,100763.78
2022-08-19T11:26:08.655Z,100755.16
2022-08-19T11:28:37.188Z,100765.56
2022-08-19T11:31:04.984Z,100758.88
2022-08-19T11:33:33.785Z,100759.66
2022-08-19T11:36:02.229Z,100757.38
2022-08-19T11:38:30.279Z,100763.25
2022-08-19T11:41:05.196Z,100757.22
2022-08-19T11:43:37.178Z,100759.31
2022-08-19T11:46:08.044Z,100755.09
2022-08-19T11:48:36.869Z,100745.88
2022-08-19T11:51:11.738Z,100754.69
2022-08-19T11:53:39.735Z,100751.75
2022-08-19T11:56:09.174Z,100750.38
2022-08-19T11:58:37.366Z,100759.59
2022-08-19T12:01:09.729Z,100754.84
2022-08-19T12:03:37.714Z,100763.69
2022-08-19T12:06:14.320Z,100757.47
2022-08-19T12:08:44.051Z,100751.69
2022-08-19T12:11:13.513Z,100749.78
2022-08-19T12:13:42.221Z,100754.19
2022-08-19T12:16:20.003Z,100747.25
2022-08-19T12:18:48.362Z,100744.38
2022-08-19T12:21:18.573Z,100746.69
2022-08-19T12:23:46.598Z,100749.91
2022-08-19T12:26:14.358Z,100765.16
2022-08-19T12:28:42.538Z,100741.78
2022-08-19T12:31:13.136Z,100745.25
2022-08-19T12:33:42.251Z,100748.66
2022-08-19T12:36:12.200Z,100754.06
2022-08-19T12:38:41.317Z,100756.97
2022-08-19T12:41:13.784Z,100763.88
2022-08-19T12:43:42.897Z,100760.03
2022-08-19T12:46:11.796Z,100761.75
2022-08-19T12:48:43.704Z,100764.53
2022-08-19T12:51:14.411Z,100768.28
2022-08-19T12:53:42.999Z,100751.34
2022-08-19T12:56:12.825Z,100752.53
2022-08-19T12:58:50.794Z,100752.81
2022-08-19T13:01:22.609Z,100737.22
2022-08-19T13:03:53.638Z,100758.03
2022-08-19T13:06:21.465Z,100762.41
2022-08-19T13:08:49.124Z,100763.78
2022-08-19T13:11:19.834Z,100765.69
2022-08-19T13:13:51.333Z,100760.47
2022-08-19T13:16:21.301Z,100756.59
2022-08-19T13:18:49.403Z,100777.75
2022-08-19T13:21:17.026Z,100751.38
2022-08-19T13:23:44.725Z,100756.91
2022-08-19T13:26:13.897Z,100756.13
2022-08-19T13:29:01.443Z,100748.56
2022-08-19T13:31:51.548Z,100766.66
2022-08-19T13:34:40.461Z,100756.69
2022-08-19T13:37:08.610Z,100759.88
2022-08-19T13:39:36.904Z,100759.47
2022-08-19T13:42:05.823Z,100759.88
2022-08-19T13:44:33.754Z,100756.09
2022-08-19T13:47:10.895Z,100749.94
2022-08-19T13:49:38.492Z,100752.81
2022-08-19T13:52:06.912Z,100747.06
2022-08-19T13:54:34.542Z,100759.13
2022-08-19T13:57:02.089Z,100760.16
2022-08-19T13:59:29.641Z,100764.31
2022-08-19T14:02:01.587Z,100765.53
2022-08-19T14:04:29.465Z,100766.78
2022-08-19T14:06:57.078Z,100756.31
2022-08-19T14:09:24.691Z,100752.91
2022-08-19T14:11:52.571Z,100750.31
2022-08-19T14:14:20.114Z,100750.13
2022-08-19T14:16:47.753Z,100745.50
2022-08-19T14:19:15.504Z,100744.59
2022-08-19T14:21:43.079Z,100744.72
2022-08-19T14:24:10.751Z,100738.41
2022-08-19T14:26:38.312Z,100737.22
2022-08-19T14:29:05.853Z,100734.38
2022-08-19T14:31:33.388Z,100754.31
2022-08-19T14:34:00.938Z,100751.88
2022-08-19T14:36:28.522Z,100749.56
2022-08-19T14:38:56.257Z,100764.59
2022-08-19T14:41:24.775Z,100764.41
2022-08-19T14:43:53.940Z,100757.63
2022-08-19T14:46:25.131Z,100750.22
2022-08-19T14:48:53.558Z,100766.97
2022-08-19T14:51:22.629Z,100754.97
2022-08-19T14:53:51.374Z,100758.81
2022-08-19T14:56:22.166Z,100769.31
2022-08-19T14:58:52.696Z,100776.44
2022-08-19T15:01:23.213Z,100767.66
2022-08-19T15:03:53.799Z,100770.75
2022-08-19T15:06:24.005Z,100770.97
2022-08-19T15:08:52.788Z,100776.66
2022-08-19T15:11:23.694Z,100778.34
2022-08-19T15:13:51.625Z,100782.59
2022-08-19T15:16:19.634Z,100781.63
2022-08-19T15:18:51.433Z,100778.22
2022-08-19T15:21:26.942Z,100778.28
2022-08-19T15:23:57.700Z,100763.59
2022-08-19T15:26:27.367Z,100760.78
2022-08-19T15:28:55.133Z,100767.41
2022-08-19T15:31:27.973Z,100755.69
2022-08-19T15:33:59.329Z,100760.94
2022-08-19T15:36:28.474Z,100750.28
2022-08-19T15:38:57.571Z,100755.13
2022-08-19T15:41:29.454Z,100757.00
2022-08-19T15:44:01.144Z,100754.41
2022-08-19T15:46:32.211Z,100752.16
2022-08-19T15:49:00.723Z,100753.59
2022-08-19T15:51:30.539Z,100751.88
2022-08-19T15:53:59.139Z,100753.03
2022-08-19T15:56:27.524Z,100766.25
2022-08-19T15:59:13.723Z,100768.88
2022-08-19T16:01:59.785Z,100817.41
2022-08-19T16:04:45.931Z,100824.91
2022-08-19T16:07:13.524Z,100851.31
2022-08-19T16:09:41.122Z,100852.97
2022-08-19T16:12:10.563Z,100852.75
2022-08-19T16:14:38.397Z,100852.81
2022-08-19T16:17:06.338Z,100847.06
2022-08-19T16:19:33.920Z,100843.78
2022-08-19T16:22:02.002Z,100840.72
2022-08-19T16:24:29.837Z,100835.66
2022-08-19T16:26:57.541Z,100844.63
2022-08-19T16:29:34.656Z,100836.91
2022-08-19T16:32:10.960Z,100839.84
2022-08-19T16:34:42.456Z,100840.19
2022-08-19T16:37:10.347Z,100834.63
2022-08-19T16:39:38.505Z,100851.66
2022-08-19T16:42:07.984Z,100847.78
2022-08-19T16:44:36.790Z,100850.63
2022-08-19T16:47:04.418Z,100852.50
2022-08-19T16:49:53.748Z,100852.81
2022-08-19T16:52:20.215Z,100859.56
2022-08-19T16:54:48.701Z,100859.06
2022-08-19T16:57:16.628Z,100858.03
2022-08-19T16:59:48.664Z,100864.78
2022-08-19T17:02:19.387Z,100855.84
2022-08-19T17:04:57.946Z,100866.47
2022-08-19T17:07:27.888Z,100862.75
2022-08-19T17:09:56.660Z,100863.63
2022-08-19T17:12:32.239Z,100859.91
2022-08-19T17:15:02.635Z,100862.94
2022-08-19T17:17:31.507Z,100861.75
2022-08-19T17:20:00.703Z,100862.78
2022-08-19T17:22:29.071Z,100857.38
2022-08-19T17:24:58.001Z,100855.00
2022-08-19T17:27:41.973Z,100862.78
2022-08-19T17:30:09.884Z,100857.19
2022-08-19T17:32:37.401Z,100850.63
2022-08-19T17:35:05.474Z,100863.13
2022-08-19T17:37:34.255Z,100866.31
2022-08-19T17:40:07.505Z,100865.47
2022-08-19T17:42:36.757Z,100878.75
2022-08-19T17:45:05.819Z,100875.41
2022-08-19T17:47:33.513Z,100872.88
2022-08-19T17:50:01.070Z,100881.97
2022-08-19T17:52:28.639Z,100873.03
2022-08-19T17:54:56.571Z,100870.34
2022-08-19T17:57:24.468Z,100870.34
2022-08-19T17:59:52.696Z,100874.06
2022-08-19T18:02:21.846Z,100871.53
2022-08-19T18:04:50.281Z,100871.84
2022-08-19T18:07:21.517Z,100878.41
2022-08-19T18:09:52.621Z,100880.41
2022-08-19T18:12:27.024Z,100885.31
2022-08-19T18:14:54.667Z,100890.00
2022-08-19T18:17:23.445Z,100886.78
2022-08-19T18:19:51.344Z,100899.06
2022-08-19T18:22:37.025Z,100897.03
2022-08-19T18:25:08.851Z,100888.63
2022-08-19T18:27:36.661Z,100895.69
2022-08-19T18:30:06.747Z,100890.94
2022-08-19T18:32:38.333Z,100893.59
2022-08-19T18:35:12.386Z,100896.59
2022-08-19T18:37:41.529Z,100899.63
2022-08-19T18:40:30.518Z,100909.03
2022-08-19T18:43:17.478Z,100910.50
2022-08-19T18:46:04.148Z,100915.56
2022-08-19T18:48:54.362Z,100922.41
2022-08-19T18:51:27.729Z,100924.91
2022-08-19T18:53:58.866Z,100935.28
2022-08-19T18:56:31.816Z,100942.00
2022-08-19T18:59:00.111Z,100939.63
2022-08-19T19:01:34.487Z,100945.34
2022-08-19T19:04:05.902Z,100946.78
2022-08-19T19:06:38.197Z,100945.59
2022-08-19T19:09:18.040Z,100949.41
2022-08-19T19:11:49.052Z,100955.41
2022-08-19T19:14:45.577Z,100955.03
2022-08-19T19:17:12.791Z,100957.19
2022-08-19T19:19:42.823Z,100953.84
2022-08-19T19:22:13.737Z,100965.88
2022-08-19T19:24:45.159Z,100957.44
2022-08-19T19:27:14.662Z,100964.28
2022-08-19T19:29:42.747Z,100960.38
2022-08-19T19:32:18.679Z,100959.28
2022-08-19T19:34:46.505Z,100960.78
2022-08-19T19:37:14.569Z,100961.22
2022-08-19T19:39:46.184Z,100965.22
2022-08-19T19:42:20.537Z,100959.44
2022-08-19T19:44:52.461Z,100964.44
2022-08-19T19:47:24.427Z,100968.75
2022-08-19T19:50:20.113Z,100963.81
2022-08-19T19:52:40.917Z,100963.44
2022-08-19T19:55:09.914Z,100965.72
2022-08-19T19:57:39.337Z,100963.34
2022-08-19T20:00:08.856Z,100968.16
2022-08-19T20:02:36.439Z,100972.16
2022-08-19T20:05:04.841Z,100970.06
2022-08-19T20:07:51.352Z,100978.56
2022-08-19T20:10:19.144Z,100975.44
2022-08-19T20:12:46.706Z,100978.56
2022-08-19T20:15:14.977Z,100972.66
2022-08-19T20:17:46.725Z,100978.19
2022-08-19T20:20:16.511Z,100975.91
2022-08-19T20:22:45.991Z,100977.22
2022-08-19T20:25:16.539Z,100975.81
2022-08-19T20:27:44.721Z,100971.75
2022-08-19T20:30:19.597Z,100985.31
2022-08-19T20:32:50.588Z,100983.63
2022-08-19T20:35:21.375Z,100976.88
2022-08-19T20:37:49.591Z,100977.00
2022-08-19T20:40:21.665Z,100973.59
2022-08-19T20:42:50.829Z,100977.44
2022-08-19T20:45:33.475Z,100974.75
2022-08-19T20:48:03.141Z,100970.53
2022-08-19T20:50:35.970Z,100969.97
2022-08-19T20:53:14.884Z,100969.25
2022-08-19T20:55:49.326Z,100969.44
2022-08-19T20:58:20.539Z,100962.50
2022-08-19T21:00:49.782Z,100970.69
2022-08-19T21:03:21.254Z,100968.44
2022-08-19T21:05:49.306Z,100974.94
2022-08-19T21:08:20.157Z,100967.06
2022-08-19T21:10:49.313Z,100963.81
2022-08-19T21:13:18.207Z,100953.38
2022-08-19T21:15:46.784Z,100962.41
2022-08-19T21:18:16.335Z,100956.19
2022-08-19T21:20:45.295Z,100962.41
2022-08-19T21:23:16.775Z,100953.22
2022-08-19T21:25:52.996Z,100956.63
2022-08-19T21:28:34.608Z,100969.88
2022-08-19T21:31:06.293Z,100959.84
2022-08-19T21:33:34.233Z,100949.81
2022-08-19T21:36:02.635Z,100955.19
2022-08-19T21:38:30.778Z,100965.50
2022-08-19T21:40:58.423Z,100963.56
2022-08-19T21:43:26.661Z,100969.22
2022-08-19T21:45:54.240Z,100969.03
2022-08-19T21:48:21.985Z,100967.38
2022-08-19T21:50:50.904Z,100975.81
2022-08-19T21:53:19.218Z,100972.59
2022-08-19T21:55:53.473Z,100967.38
2022-08-19T21:58:28.264Z,100969.06
2022-08-19T22:00:59.267Z,100969.34
2022-08-19T22:03:27.609Z,100969.50
2022-08-19T22:05:55.218Z,100966.09
2022-08-19T22:08:22.841Z,100966.41
2022-08-19T22:10:50.848Z,100961.47
2022-08-19T22:13:20.244Z,100964.28
2022-08-19T22:15:50.436Z,100965.56
2022-08-19T22:18:19.064Z,100971.50
2022-08-19T22:20:47.964Z,100971.78
2022-08-19T22:23:15.690Z,100967.41
2022-08-19T22:25:46.117Z,100961.31
2022-08-19T22:28:18.841Z,100958.38
2022-08-19T22:30:56.392Z,100947.34
2022-08-19T22:33:25.770Z,100954.09
2022-08-19T22:35:53.936Z,100953.53
2022-08-19T22:38:22.652Z,100964.53
2022-08-19T22:40:51.876Z,100947.75
2022-08-19T22:43:22.946Z,100947.75
2022-08-19T22:45:53.320Z,100949.72
2022-08-19T22:48:23.340Z,100945.63
2022-08-19T22:51:11.055Z,100949.44
2022-08-19T22:53:42.556Z,100945.06
2022-08-19T22:56:15.068Z,100949.88
2022-08-19T22:58:43.746Z,100955.34
2022-08-19T23:01:14.698Z,100956.34
2022-08-19T23:03:56.483Z,100954.50
2022-08-19T23:06:26.949Z,100949.16
2022-08-19T23:09:01.370Z,100946.31
2022-08-19T23:11:29.447Z,100948.72
2022-08-19T23:13:56.993Z,100941.41
2022-08-19T23:16:24.817Z,100947.31
2022-08-19T23:18:54.393Z,100946.19
2022-08-19T23:21:24.821Z,100940.56
2022-08-19T23:23:53.688Z,100935.78
2022-08-19T23:26:21.634Z,100931.13
2022-08-19T23:29:07.876Z,100929.84
2022-08-19T23:31:36.403Z,100919.41
2022-08-19T23:34:04.553Z,100905.72
2022-08-19T23:36:32.141Z,100904.88
2022-08-19T23:39:00.860Z,100906.72
2022-08-19T23:41:28.511Z,100911.19
2022-08-19T23:43:56.068Z,100901.94
2022-08-19T23:46:28.323Z,100898.81
2022-08-19T23:48:57.481Z,100898.25
2022-08-19T23:51:26.431Z,100897.44
2022-08-19T23:53:54.214Z,100894.03
2022-08-19T23:56:22.307Z,100889.78
2022-08-19T23:58:49.844Z,100883.72
